createdAt,value
2023-12-24T00:00:43.951Z,21.99
2023-12-24T00:01:43.936Z,21.99
2023-12-24T00:02:44.205Z,21.99
2023-12-24T00:03:44.142Z,21.99
2023-12-24T00:04:44.176Z,21.99
2023-12-24T00:05:44.315Z,21.99
2023-12-24T00:06:44.276Z,21.99
2023-12-24T00:07:44.339Z,22.00
2023-12-24T00:08:44.566Z,22.00
2023-12-24T00:09:44.459Z,21.99
2023-12-24T00:10:44.482Z,21.99
2023-12-24T00:11:44.590Z,21.99
2023-12-24T00:12:44.608Z,21.99
2023-12-24T00:13:44.672Z,21.99
2023-12-24T00:14:44.780Z,21.99
2023-12-24T00:15:44.792Z,21.99
2023-12-24T00:16:44.854Z,21.99
2023-12-24T00:17:45.008Z,21.99
2023-12-24T00:18:45.086Z,21.99
2023-12-24T00:19:45.064Z,21.99
2023-12-24T00:20:45.143Z,21.99
2023-12-24T00:21:45.193Z,21.99
2023-12-24T00:22:45.228Z,21.99
2023-12-24T00:23:45.284Z,21.99
2023-12-24T00:24:45.325Z,21.98
2023-12-24T00:25:45.366Z,21.99
2023-12-24T00:26:45.477Z,21.98
2023-12-24T00:27:45.561Z,21.99
2023-12-24T00:28:45.621Z,21.99
2023-12-24T00:29:45.681Z,22.00
2023-12-24T00:30:45.707Z,21.99
2023-12-24T00:31:45.761Z,21.99
2023-12-24T00:32:45.907Z,21.99
2023-12-24T00:33:45.983Z,21.99
2023-12-24T00:34:45.960Z,21.99
2023-12-24T00:35:46.026Z,21.99
2023-12-24T00:36:46.057Z,21.99
2023-12-24T00:37:46.126Z,21.99
2023-12-24T00:38:46.188Z,21.99
2023-12-24T00:39:46.249Z,21.99
2023-12-24T00:40:46.301Z,21.98
2023-12-24T00:41:46.377Z,21.99
2023-12-24T00:42:46.486Z,21.98
2023-12-24T00:43:46.482Z,21.99
2023-12-24T00:44:46.571Z,21.98
2023-12-24T00:45:46.659Z,21.99
2023-12-24T00:46:46.711Z,21.99
2023-12-24T00:47:47.126Z,21.98
2023-12-24T00:48:46.923Z,21.99
2023-12-24T00:49:46.907Z,21.99
2023-12-24T00:50:47.008Z,21.99
2023-12-24T00:51:47.054Z,21.98
2023-12-24T00:52:47.101Z,21.99
2023-12-24T00:53:47.220Z,21.99
2023-12-24T00:54:47.235Z,21.99
2023-12-24T00:55:47.349Z,21.98
2023-12-24T00:56:47.346Z,21.99
2023-12-24T00:57:47.404Z,21.98
2023-12-24T00:58:47.484Z,21.98
2023-12-24T00:59:47.520Z,21.98
2023-12-24T01:00:47.790Z,21.98
2023-12-24T01:01:47.642Z,21.98
2023-12-24T01:02:47.705Z,21.98
2023-12-24T01:03:47.843Z,21.99
2023-12-24T01:04:47.831Z,21.98
2023-12-24T01:05:47.995Z,21.98
2023-12-24T01:06:47.982Z,21.98
2023-12-24T01:07:48.026Z,21.99
2023-12-24T01:08:48.098Z,21.98
2023-12-24T01:09:48.204Z,21.99
2023-12-24T01:10:50.584Z,21.99
2023-12-24T01:11:48.269Z,21.97
2023-12-24T01:12:48.333Z,21.98
2023-12-24T01:13:48.286Z,21.99
2023-12-24T01:14:48.284Z,21.98
2023-12-24T01:15:48.281Z,21.98
2023-12-24T01:16:48.254Z,21.99
2023-12-24T01:17:48.399Z,21.99
2023-12-24T01:18:48.348Z,21.99
2023-12-24T01:19:48.280Z,21.99
2023-12-24T01:20:48.256Z,21.99
2023-12-24T01:21:48.288Z,21.99
2023-12-24T01:22:48.308Z,21.99
2023-12-24T01:23:48.304Z,21.98
2023-12-24T01:24:48.275Z,21.99
2023-12-24T01:25:48.294Z,21.98
2023-12-24T01:26:48.343Z,21.99
2023-12-24T01:27:48.275Z,21.98
2023-12-24T01:28:48.287Z,21.99
2023-12-24T01:29:48.300Z,21.98
2023-12-24T01:30:48.335Z,21.99
2023-12-24T01:31:48.287Z,21.99
2023-12-24T01:32:48.515Z,21.99
2023-12-24T01:33:48.387Z,21.98
2023-12-24T01:34:48.284Z,21.98
2023-12-24T01:35:48.408Z,21.99
2023-12-24T01:36:48.299Z,21.98
2023-12-24T01:37:48.308Z,21.98
2023-12-24T01:38:48.316Z,21.99
2023-12-24T01:39:48.317Z,21.98
2023-12-24T01:40:48.428Z,21.99
2023-12-24T01:41:48.443Z,21.98
2023-12-24T01:42:48.542Z,21.99
2023-12-24T01:43:48.648Z,21.99
2023-12-24T01:44:48.629Z,21.99
2023-12-24T01:45:48.673Z,21.98
2023-12-24T01:46:48.700Z,21.98
2023-12-24T01:47:52.378Z,21.98
2023-12-24T01:48:49.695Z,21.98
2023-12-24T01:49:48.795Z,21.98
2023-12-24T01:50:48.966Z,21.98
2023-12-24T01:51:48.814Z,21.99
2023-12-24T01:52:48.889Z,21.98
2023-12-24T01:53:48.823Z,21.98
2023-12-24T01:54:48.932Z,21.98
2023-12-24T01:55:48.867Z,21.98
2023-12-24T01:56:48.825Z,21.98
2023-12-24T01:57:48.848Z,21.98
2023-12-24T01:58:48.879Z,21.98
2023-12-24T01:59:48.820Z,21.98
2023-12-24T02:00:48.839Z,21.99
2023-12-24T02:01:48.818Z,21.98
2023-12-24T02:02:48.978Z,21.98
2023-12-24T02:03:49.155Z,21.98
2023-12-24T02:04:48.928Z,21.98
2023-12-24T02:05:48.890Z,21.98
2023-12-24T02:06:48.814Z,21.99
2023-12-24T02:07:48.855Z,21.98
2023-12-24T02:08:48.927Z,21.98
2023-12-24T02:09:48.999Z,21.98
2023-12-24T02:10:49.041Z,21.98
2023-12-24T02:11:49.156Z,21.98
2023-12-24T02:12:49.336Z,21.98
2023-12-24T02:13:49.265Z,21.98
2023-12-24T02:14:49.363Z,21.98
2023-12-24T02:15:49.385Z,21.98
2023-12-24T02:16:49.489Z,21.99
2023-12-24T02:17:49.633Z,21.98
2023-12-24T02:18:49.780Z,21.98
2023-12-24T02:19:49.661Z,21.98
2023-12-24T02:20:49.731Z,21.98
2023-12-24T02:21:49.784Z,21.98
2023-12-24T02:22:50.052Z,21.98
2023-12-24T02:23:49.913Z,21.98
2023-12-24T02:24:49.921Z,21.97
2023-12-24T02:25:50.014Z,21.98
2023-12-24T02:26:50.077Z,21.98
2023-12-24T02:27:50.147Z,21.98
2023-12-24T02:28:50.210Z,21.98
2023-12-24T02:29:50.311Z,21.98
2023-12-24T02:30:50.433Z,21.98
2023-12-24T02:31:50.398Z,21.97
2023-12-24T02:32:50.662Z,21.98
2023-12-24T02:33:50.776Z,21.98
2023-12-24T02:34:50.593Z,21.97
2023-12-24T02:35:50.679Z,21.96
2023-12-24T02:36:50.692Z,21.98
2023-12-24T02:37:50.773Z,21.97
2023-12-24T02:38:51.154Z,21.97
2023-12-24T02:39:50.921Z,21.98
2023-12-24T02:40:50.949Z,21.98
2023-12-24T02:41:51.001Z,21.98
2023-12-24T02:42:51.396Z,21.97
2023-12-24T02:43:51.159Z,21.97
2023-12-24T02:44:51.166Z,21.98
2023-12-24T02:45:51.248Z,21.97
2023-12-24T02:46:51.305Z,21.97
2023-12-24T02:47:51.560Z,21.97
2023-12-24T02:48:51.741Z,21.97
2023-12-24T02:49:51.480Z,21.97
2023-12-24T02:50:51.588Z,21.97
2023-12-24T02:51:51.626Z,21.97
2023-12-24T02:52:51.987Z,21.97
2023-12-24T02:53:52.149Z,21.98
2023-12-24T02:54:51.848Z,21.97
2023-12-24T02:55:51.900Z,21.97
2023-12-24T02:56:51.960Z,21.98
2023-12-24T02:57:52.028Z,21.97
2023-12-24T02:58:52.121Z,21.97
2023-12-24T02:59:52.166Z,21.97
2023-12-24T03:00:52.288Z,21.97
2023-12-24T03:01:52.282Z,21.97
2023-12-24T03:02:52.622Z,21.97
2023-12-24T03:03:52.641Z,21.96
2023-12-24T03:04:52.510Z,21.97
2023-12-24T03:05:52.665Z,21.98
2023-12-24T03:06:52.635Z,21.97
2023-12-24T03:07:54.908Z,21.97
2023-12-24T03:08:56.678Z,21.97
2023-12-24T03:09:53.696Z,21.98
2023-12-24T03:10:53.691Z,21.97
2023-12-24T03:11:54.704Z,21.97
2023-12-24T03:12:58.003Z,21.97
2023-12-24T03:13:58.312Z,21.96
2023-12-24T03:14:52.950Z,21.96
2023-12-24T03:15:53.034Z,21.97
2023-12-24T03:16:53.099Z,21.96
2023-12-24T03:17:53.289Z,21.97
2023-12-24T03:18:53.279Z,21.97
2023-12-24T03:19:53.330Z,21.97
2023-12-24T03:20:53.378Z,21.96
2023-12-24T03:21:53.441Z,21.97
2023-12-24T03:22:53.684Z,21.97
2023-12-24T03:23:53.561Z,21.96
2023-12-24T03:24:53.636Z,21.96
2023-12-24T03:25:53.702Z,21.96
2023-12-24T03:26:53.749Z,21.97
2023-12-24T03:27:53.826Z,21.97
2023-12-24T03:28:53.875Z,21.96
2023-12-24T03:29:53.931Z,21.96
2023-12-24T03:30:54.063Z,21.97
2023-12-24T03:31:54.077Z,21.96
2023-12-24T03:32:54.426Z,21.96
2023-12-24T03:33:54.144Z,21.96
2023-12-24T03:34:55.656Z,21.96
2023-12-24T03:35:54.093Z,21.96
2023-12-24T03:36:54.082Z,21.96
2023-12-24T03:37:54.103Z,21.96
2023-12-24T03:38:54.145Z,21.97
2023-12-24T03:39:54.109Z,21.96
2023-12-24T03:40:54.077Z,21.96
2023-12-24T03:41:54.100Z,21.97
2023-12-24T03:42:55.669Z,21.96
2023-12-24T03:43:54.182Z,21.97
2023-12-24T03:44:54.242Z,21.96
2023-12-24T03:45:54.248Z,21.96
2023-12-24T03:46:54.293Z,21.96
2023-12-24T03:47:54.658Z,21.96
2023-12-24T03:48:54.726Z,21.97
2023-12-24T03:49:54.508Z,21.96
2023-12-24T03:50:54.607Z,21.96
2023-12-24T03:51:54.632Z,21.96
2023-12-24T03:52:57.368Z,21.95
2023-12-24T03:53:54.682Z,21.95
2023-12-24T03:54:54.664Z,21.96
2023-12-24T03:55:54.698Z,21.96
2023-12-24T03:56:54.685Z,21.95
2023-12-24T03:57:56.703Z,21.96
2023-12-24T03:58:55.679Z,21.96
2023-12-24T03:59:54.745Z,21.95
2023-12-24T04:00:54.781Z,21.95
2023-12-24T04:01:55.693Z,21.95
2023-12-24T04:02:54.847Z,21.96
2023-12-24T04:03:55.308Z,21.96
2023-12-24T04:04:54.740Z,21.96
2023-12-24T04:05:54.853Z,21.95
2023-12-24T04:06:55.761Z,21.95
2023-12-24T04:07:54.723Z,21.95
2023-12-24T04:08:55.182Z,21.95
2023-12-24T04:09:54.728Z,21.96
2023-12-24T04:10:54.735Z,21.95
2023-12-24T04:11:54.848Z,21.96
2023-12-24T04:12:56.327Z,21.95
2023-12-24T04:13:55.892Z,21.94
2023-12-24T04:14:54.897Z,21.95
2023-12-24T04:15:54.882Z,21.95
2023-12-24T04:16:54.912Z,21.95
2023-12-24T04:17:55.226Z,21.96
2023-12-24T04:18:54.969Z,21.95
2023-12-24T04:19:54.868Z,21.96
2023-12-24T04:20:54.879Z,21.95
2023-12-24T04:21:54.896Z,21.95
2023-12-24T04:22:55.046Z,21.95
2023-12-24T04:23:56.687Z,21.95
2023-12-24T04:24:54.961Z,21.95
2023-12-24T04:25:54.963Z,21.95
2023-12-24T04:26:54.924Z,21.95
2023-12-24T04:27:54.934Z,21.95
2023-12-24T04:28:55.177Z,21.95
2023-12-24T04:29:54.954Z,21.95
2023-12-24T04:30:54.980Z,21.95
2023-12-24T04:31:54.925Z,21.95
2023-12-24T04:32:55.333Z,21.95
2023-12-24T04:34:02.812Z,21.92
2023-12-24T04:35:02.756Z,21.93
2023-12-24T04:36:02.750Z,21.94
2023-12-24T04:37:02.740Z,21.94
2023-12-24T04:38:02.770Z,21.94
2023-12-24T04:39:02.770Z,21.94
2023-12-24T04:40:02.767Z,21.94
2023-12-24T04:41:02.791Z,21.94
2023-12-24T04:42:02.772Z,21.93
2023-12-24T04:43:02.787Z,21.94
2023-12-24T04:44:03.437Z,21.93
2023-12-24T04:45:02.793Z,21.94
2023-12-24T04:46:02.819Z,21.94
2023-12-24T04:47:02.815Z,21.94
2023-12-24T04:48:02.843Z,21.94
2023-12-24T04:49:02.892Z,21.94
2023-12-24T04:50:02.791Z,21.93
2023-12-24T04:51:02.813Z,21.94
2023-12-24T04:52:02.895Z,21.93
2023-12-24T04:53:02.978Z,21.94
2023-12-24T04:54:03.373Z,21.93
2023-12-24T04:55:03.084Z,21.94
2023-12-24T04:56:03.157Z,21.94
2023-12-24T04:57:03.205Z,21.94
2023-12-24T04:58:03.310Z,21.94
2023-12-24T04:59:03.392Z,21.94
2023-12-24T05:00:03.434Z,21.94
2023-12-24T05:01:03.555Z,21.93
2023-12-24T05:02:03.833Z,21.94
2023-12-24T05:03:03.647Z,21.94
2023-12-24T05:04:03.899Z,21.94
2023-12-24T05:05:03.948Z,21.94
2023-12-24T05:06:03.964Z,21.94
2023-12-24T05:07:03.875Z,21.93
2023-12-24T05:08:04.011Z,21.93
2023-12-24T05:09:04.064Z,21.94
2023-12-24T05:10:04.227Z,21.94
2023-12-24T05:11:04.918Z,21.93
2023-12-24T05:12:04.260Z,21.93
2023-12-24T05:13:04.337Z,21.94
2023-12-24T05:14:04.506Z,21.94
2023-12-24T05:15:04.493Z,21.93
2023-12-24T05:16:04.535Z,21.94
2023-12-24T05:17:04.612Z,21.93
2023-12-24T05:18:04.831Z,21.93
2023-12-24T05:19:04.922Z,21.94
2023-12-24T05:20:04.905Z,21.93
2023-12-24T05:21:04.863Z,21.93
2023-12-24T05:22:04.971Z,21.94
2023-12-24T05:23:04.952Z,21.93
2023-12-24T05:24:04.952Z,21.93
2023-12-24T05:25:04.966Z,21.93
2023-12-24T05:26:05.027Z,21.93
2023-12-24T05:27:05.016Z,21.93
2023-12-24T05:28:04.993Z,21.92
2023-12-24T05:29:04.972Z,21.93
2023-12-24T05:30:05.085Z,21.93
2023-12-24T05:31:05.070Z,21.93
2023-12-24T05:32:05.368Z,21.92
2023-12-24T05:33:05.271Z,21.92
2023-12-24T05:34:05.448Z,21.93
2023-12-24T05:35:05.379Z,21.93
2023-12-24T05:36:05.429Z,21.93
2023-12-24T05:37:05.492Z,21.93
2023-12-24T05:38:05.627Z,21.93
2023-12-24T05:39:05.905Z,21.92
2023-12-24T05:40:05.705Z,21.93
2023-12-24T05:41:05.764Z,21.93
2023-12-24T05:42:05.846Z,21.92
2023-12-24T05:43:05.923Z,21.93
2023-12-24T05:44:06.050Z,21.92
2023-12-24T05:45:06.077Z,21.92
2023-12-24T05:46:06.160Z,21.92
2023-12-24T05:47:06.247Z,21.93
2023-12-24T05:48:06.373Z,21.93
2023-12-24T05:49:06.389Z,21.92
2023-12-24T05:50:06.447Z,21.92
2023-12-24T05:51:06.486Z,21.92
2023-12-24T05:52:06.578Z,21.92
2023-12-24T05:53:06.695Z,21.93
2023-12-24T05:54:06.910Z,21.92
2023-12-24T05:55:06.752Z,21.91
2023-12-24T05:56:06.863Z,21.92
2023-12-24T05:57:06.927Z,21.92
2023-12-24T05:58:07.000Z,21.92
2023-12-24T05:59:07.137Z,21.91
2023-12-24T06:00:07.123Z,21.92
2023-12-24T06:01:07.249Z,21.91
2023-12-24T06:02:07.343Z,21.92
2023-12-24T06:03:07.335Z,21.92
2023-12-24T06:04:07.380Z,21.92
2023-12-24T06:05:08.507Z,21.91
2023-12-24T06:06:07.477Z,21.92
2023-12-24T06:07:07.402Z,21.92
2023-12-24T06:08:07.469Z,21.92
2023-12-24T06:09:08.032Z,21.92
2023-12-24T06:10:07.444Z,21.92
2023-12-24T06:11:07.472Z,21.92
2023-12-24T06:12:07.408Z,21.92
2023-12-24T06:13:07.458Z,21.92
2023-12-24T06:14:07.951Z,21.92
2023-12-24T06:15:07.761Z,21.92
2023-12-24T06:16:07.673Z,21.92
2023-12-24T06:17:07.858Z,21.92
2023-12-24T06:18:08.047Z,21.91
2023-12-24T06:19:08.679Z,21.91
2023-12-24T06:20:08.133Z,21.91
2023-12-24T06:21:08.109Z,21.91
2023-12-24T06:22:08.125Z,21.91
2023-12-24T06:23:08.236Z,21.91
2023-12-24T06:24:08.301Z,21.91
2023-12-24T06:25:08.313Z,21.92
2023-12-24T06:26:08.629Z,21.91
2023-12-24T06:27:08.481Z,21.91
2023-12-24T06:28:08.539Z,21.92
2023-12-24T06:29:08.656Z,21.92
2023-12-24T06:30:08.729Z,21.91
2023-12-24T06:31:08.735Z,21.91
2023-12-24T06:32:08.914Z,21.92
2023-12-24T06:33:08.849Z,21.91
2023-12-24T06:34:09.463Z,21.91
2023-12-24T06:35:09.032Z,21.90
2023-12-24T06:36:09.043Z,21.91
2023-12-24T06:37:09.100Z,21.91
2023-12-24T06:38:09.244Z,21.91
2023-12-24T06:39:09.283Z,21.91
2023-12-24T06:40:09.345Z,21.91
2023-12-24T06:41:09.369Z,21.91
2023-12-24T06:42:09.441Z,21.90
2023-12-24T06:43:09.504Z,21.91
2023-12-24T06:44:09.669Z,21.91
2023-12-24T06:45:09.675Z,21.91
2023-12-24T06:46:09.731Z,21.90
2023-12-24T06:47:09.812Z,21.90
2023-12-24T06:48:10.040Z,21.91
2023-12-24T06:49:09.922Z,21.91
2023-12-24T06:50:10.013Z,21.91
2023-12-24T06:51:10.028Z,21.90
2023-12-24T06:52:10.139Z,21.90
2023-12-24T06:53:10.228Z,21.90
2023-12-24T06:54:10.230Z,21.90
2023-12-24T06:55:10.365Z,21.90
2023-12-24T06:56:10.473Z,21.90
2023-12-24T06:57:11.391Z,21.90
2023-12-24T06:58:10.543Z,21.90
2023-12-24T06:59:10.964Z,21.90
2023-12-24T07:00:10.674Z,21.90
2023-12-24T07:01:10.844Z,21.90
2023-12-24T07:02:10.827Z,21.90
2023-12-24T07:03:10.932Z,21.90
2023-12-24T07:04:10.990Z,21.90
2023-12-24T07:05:11.006Z,21.90
2023-12-24T07:06:11.163Z,21.90
2023-12-24T07:07:11.141Z,21.90
2023-12-24T07:08:11.314Z,21.89
2023-12-24T07:09:11.331Z,21.91
2023-12-24T07:10:11.374Z,21.89
2023-12-24T07:11:11.441Z,21.90
2023-12-24T07:12:11.495Z,21.89
2023-12-24T07:13:11.560Z,21.90
2023-12-24T07:14:11.640Z,21.90
2023-12-24T07:15:12.432Z,21.89
2023-12-24T07:16:11.793Z,21.90
2023-12-24T07:17:11.917Z,21.90
2023-12-24T07:18:12.040Z,21.89
2023-12-24T07:19:11.977Z,21.89
2023-12-24T07:20:12.054Z,21.90
2023-12-24T07:21:12.078Z,21.90
2023-12-24T07:22:12.146Z,21.89
2023-12-24T07:23:12.384Z,21.89
2023-12-24T07:24:12.313Z,21.90
2023-12-24T07:25:12.424Z,21.89
2023-12-24T07:26:12.450Z,21.90
2023-12-24T07:27:13.388Z,21.89
2023-12-24T07:28:12.590Z,21.90
2023-12-24T07:29:12.611Z,21.89
2023-12-24T07:30:15.435Z,21.89
2023-12-24T07:31:12.599Z,21.89
2023-12-24T07:32:12.664Z,21.89
2023-12-24T07:33:15.467Z,21.89
2023-12-24T07:34:13.084Z,21.88
2023-12-24T07:35:12.678Z,21.88
2023-12-24T07:36:12.642Z,21.89
2023-12-24T07:37:12.581Z,21.88
2023-12-24T07:38:12.681Z,21.89
2023-12-24T07:39:12.598Z,21.89
2023-12-24T07:40:12.634Z,21.89
2023-12-24T07:41:12.651Z,21.89
2023-12-24T07:42:12.634Z,21.89
2023-12-24T07:43:12.628Z,21.89
2023-12-24T07:44:12.667Z,21.89
2023-12-24T07:45:12.645Z,21.89
2023-12-24T07:46:12.658Z,21.89
2023-12-24T07:47:12.630Z,21.89
2023-12-24T07:48:12.701Z,21.89
2023-12-24T07:49:12.726Z,21.89
2023-12-24T07:50:12.825Z,21.89
2023-12-24T07:51:12.631Z,21.89
2023-12-24T07:52:12.650Z,21.89
2023-12-24T07:53:12.660Z,21.89
2023-12-24T07:54:12.924Z,21.88
2023-12-24T07:55:12.676Z,21.89
2023-12-24T07:56:12.696Z,21.89
2023-12-24T07:57:12.695Z,21.88
2023-12-24T07:58:12.697Z,21.88
2023-12-24T07:59:12.797Z,21.89
2023-12-24T08:00:12.644Z,21.89
2023-12-24T08:01:12.668Z,21.89
2023-12-24T08:02:12.707Z,21.89
2023-12-24T08:03:12.715Z,21.89
2023-12-24T08:04:12.748Z,21.88
2023-12-24T08:05:12.942Z,21.88
2023-12-24T08:06:15.955Z,21.88
2023-12-24T08:07:14.148Z,21.88
2023-12-24T08:08:13.019Z,21.89
2023-12-24T08:09:13.086Z,21.88
2023-12-24T08:10:13.139Z,21.88
2023-12-24T08:11:17.075Z,21.88
2023-12-24T08:12:14.948Z,21.88
2023-12-24T08:13:14.514Z,21.88
2023-12-24T08:14:13.224Z,21.88
2023-12-24T08:15:13.221Z,21.88
2023-12-24T08:16:13.227Z,21.88
2023-12-24T08:17:13.296Z,21.88
2023-12-24T08:18:13.380Z,21.88
2023-12-24T08:19:13.340Z,21.88
2023-12-24T08:20:13.322Z,21.89
2023-12-24T08:21:13.404Z,21.88
2023-12-24T08:22:13.475Z,21.88
2023-12-24T08:23:13.501Z,21.88
2023-12-24T08:24:13.542Z,21.88
2023-12-24T08:25:13.497Z,21.88
2023-12-24T08:26:14.986Z,21.88
2023-12-24T08:27:13.443Z,21.88
2023-12-24T08:28:13.471Z,21.88
2023-12-24T08:29:13.594Z,21.88
2023-12-24T08:30:13.523Z,21.88
2023-12-24T08:31:13.585Z,21.88
2023-12-24T08:32:13.702Z,21.88
2023-12-24T08:33:14.025Z,21.87
2023-12-24T08:34:14.046Z,21.87
2023-12-24T08:35:13.901Z,21.88
2023-12-24T08:36:13.913Z,21.88
2023-12-24T08:37:13.990Z,21.87
2023-12-24T08:38:14.066Z,21.87
2023-12-24T08:39:14.474Z,21.88
2023-12-24T08:40:14.174Z,21.88
2023-12-24T08:41:14.325Z,21.88
2023-12-24T08:42:14.339Z,21.89
2023-12-24T08:43:14.372Z,21.87
2023-12-24T08:44:14.982Z,21.88
2023-12-24T08:45:14.484Z,21.87
2023-12-24T08:46:14.597Z,21.87
2023-12-24T08:47:14.728Z,21.88
2023-12-24T08:48:14.956Z,21.88
2023-12-24T08:49:14.947Z,21.88
2023-12-24T08:50:15.012Z,21.88
2023-12-24T08:51:14.981Z,21.89
2023-12-24T08:52:15.021Z,21.88
2023-12-24T08:53:15.082Z,21.87
2023-12-24T08:54:15.185Z,21.88
2023-12-24T08:55:17.428Z,21.88
2023-12-24T08:56:15.416Z,21.89
2023-12-24T08:57:15.441Z,21.88
2023-12-24T08:58:15.528Z,21.88
2023-12-24T08:59:15.644Z,21.88
2023-12-24T09:00:15.663Z,21.88
2023-12-24T09:01:15.810Z,21.88
2023-12-24T09:02:15.808Z,21.88
2023-12-24T09:03:15.867Z,21.88
2023-12-24T09:04:15.919Z,21.88
2023-12-24T09:05:16.043Z,21.88
2023-12-24T09:06:16.109Z,21.88
2023-12-24T09:07:16.127Z,21.88
2023-12-24T09:08:16.255Z,21.88
2023-12-24T09:09:16.270Z,21.87
2023-12-24T09:10:16.274Z,21.88
2023-12-24T09:11:16.352Z,21.88
2023-12-24T09:12:16.424Z,21.88
2023-12-24T09:13:16.488Z,21.88
2023-12-24T09:14:16.585Z,21.89
2023-12-24T09:15:16.572Z,21.88
2023-12-24T09:16:16.585Z,21.88
2023-12-24T09:17:16.760Z,21.88
2023-12-24T09:18:16.976Z,21.88
2023-12-24T09:19:16.849Z,21.88
2023-12-24T09:20:16.920Z,21.87
2023-12-24T09:21:16.900Z,21.87
2023-12-24T09:22:16.947Z,21.88
2023-12-24T09:23:17.073Z,21.88
2023-12-24T09:24:17.473Z,21.88
2023-12-24T09:25:17.199Z,21.88
2023-12-24T09:26:17.247Z,21.88
2023-12-24T09:27:17.313Z,21.88
2023-12-24T09:28:17.399Z,21.88
2023-12-24T09:29:17.542Z,21.88
2023-12-24T09:30:18.492Z,21.87
2023-12-24T09:31:17.608Z,21.87
2023-12-24T09:32:17.711Z,21.88
2023-12-24T09:33:17.795Z,21.88
2023-12-24T09:34:18.074Z,21.88
2023-12-24T09:35:17.925Z,21.88
2023-12-24T09:36:17.942Z,21.88
2023-12-24T09:37:18.010Z,21.89
2023-12-24T09:38:18.211Z,21.88
2023-12-24T09:39:18.949Z,21.88
2023-12-24T09:40:18.200Z,21.89
2023-12-24T09:41:18.294Z,21.87
2023-12-24T09:42:18.311Z,21.88
2023-12-24T09:43:18.386Z,21.88
2023-12-24T09:44:18.494Z,21.88
2023-12-24T09:45:18.581Z,21.88
2023-12-24T09:46:18.623Z,21.88
2023-12-24T09:47:18.736Z,21.88
2023-12-24T09:48:18.959Z,21.88
2023-12-24T09:49:18.956Z,21.88
2023-12-24T09:50:18.957Z,21.88
2023-12-24T09:51:18.979Z,21.88
2023-12-24T09:52:19.028Z,21.88
2023-12-24T09:53:19.163Z,21.87
2023-12-24T09:54:19.511Z,21.88
2023-12-24T09:55:19.275Z,21.88
2023-12-24T09:56:19.349Z,21.88
2023-12-24T09:57:19.432Z,21.88
2023-12-24T09:58:19.487Z,21.88
2023-12-24T09:59:19.544Z,21.87
2023-12-24T10:00:19.624Z,21.88
2023-12-24T10:01:19.672Z,21.88
2023-12-24T10:02:19.797Z,21.88
2023-12-24T10:03:19.797Z,21.88
2023-12-24T10:04:19.865Z,21.88
2023-12-24T10:05:20.023Z,21.88
2023-12-24T10:06:20.036Z,21.88
2023-12-24T10:07:20.028Z,21.88
2023-12-24T10:08:20.113Z,21.87
2023-12-24T10:09:20.482Z,21.88
2023-12-24T10:10:20.228Z,21.88
2023-12-24T10:11:20.306Z,21.88
2023-12-24T10:12:20.465Z,21.88
2023-12-24T10:13:20.438Z,21.88
2023-12-24T10:14:20.990Z,21.88
2023-12-24T10:15:20.577Z,21.88
2023-12-24T10:16:20.672Z,21.88
2023-12-24T10:17:20.721Z,21.88
2023-12-24T10:18:21.010Z,21.88
2023-12-24T10:19:20.897Z,21.88
2023-12-24T10:20:20.912Z,21.89
2023-12-24T10:21:21.014Z,21.88
2023-12-24T10:22:21.086Z,21.88
2023-12-24T10:23:21.182Z,21.89
2023-12-24T10:24:21.158Z,21.88
2023-12-24T10:25:21.236Z,21.88
2023-12-24T10:26:21.354Z,21.89
2023-12-24T10:27:21.383Z,21.88
2023-12-24T10:28:21.498Z,21.88
2023-12-24T10:29:22.039Z,21.88
2023-12-24T10:30:21.648Z,21.88
2023-12-24T10:31:21.696Z,21.89
2023-12-24T10:32:21.785Z,21.89
2023-12-24T10:33:24.292Z,21.89
2023-12-24T10:34:21.909Z,21.89
2023-12-24T10:35:21.849Z,21.89
2023-12-24T10:36:21.829Z,21.89
2023-12-24T10:37:21.836Z,21.89
2023-12-24T10:38:21.900Z,21.89
2023-12-24T10:39:23.402Z,21.88
2023-12-24T10:40:21.835Z,21.88
2023-12-24T10:41:21.905Z,21.89
2023-12-24T10:42:21.882Z,21.89
2023-12-24T10:43:21.836Z,21.88
2023-12-24T10:44:22.015Z,21.88
2023-12-24T10:45:21.848Z,21.89
2023-12-24T10:46:21.847Z,21.89
2023-12-24T10:47:21.917Z,21.89
2023-12-24T10:48:22.086Z,21.89
2023-12-24T10:49:21.919Z,21.90
2023-12-24T10:50:21.978Z,21.90
2023-12-24T10:51:21.899Z,21.88
2023-12-24T10:52:21.847Z,21.90
2023-12-24T10:53:21.938Z,21.89
2023-12-24T10:54:21.899Z,21.90
2023-12-24T10:55:21.884Z,21.90
2023-12-24T10:56:21.920Z,21.90
2023-12-24T10:57:21.868Z,21.90
2023-12-24T10:58:21.876Z,21.90
2023-12-24T10:59:21.931Z,21.89
2023-12-24T11:00:21.894Z,21.89
2023-12-24T11:01:21.918Z,21.90
2023-12-24T11:02:21.925Z,21.90
2023-12-24T11:03:21.951Z,21.90
2023-12-24T11:04:21.993Z,21.90
2023-12-24T11:05:22.041Z,21.90
2023-12-24T11:06:22.199Z,21.90
2023-12-24T11:07:22.165Z,21.90
2023-12-24T11:08:22.225Z,21.91
2023-12-24T11:09:22.280Z,21.90
2023-12-24T11:10:22.391Z,21.91
2023-12-24T11:11:22.438Z,21.90
2023-12-24T11:12:22.472Z,21.91
2023-12-24T11:13:22.551Z,21.90
2023-12-24T11:14:23.024Z,21.91
2023-12-24T11:15:22.694Z,21.90
2023-12-24T11:16:22.762Z,21.91
2023-12-24T11:17:22.846Z,21.91
2023-12-24T11:18:22.984Z,21.91
2023-12-24T11:19:23.049Z,21.91
2023-12-24T11:20:23.062Z,21.91
2023-12-24T11:21:23.071Z,21.91
2023-12-24T11:22:23.142Z,21.90
2023-12-24T11:23:23.187Z,21.91
2023-12-24T11:24:23.303Z,21.91
2023-12-24T11:25:23.343Z,21.91
2023-12-24T11:26:23.467Z,21.91
2023-12-24T11:27:23.498Z,21.91
2023-12-24T11:28:23.601Z,21.92
2023-12-24T11:29:23.680Z,21.91
2023-12-24T11:30:23.760Z,21.91
2023-12-24T11:31:23.796Z,21.92
2023-12-24T11:32:23.886Z,21.91
2023-12-24T11:33:24.071Z,21.92
2023-12-24T11:34:24.047Z,21.91
2023-12-24T11:35:24.090Z,21.92
2023-12-24T11:36:24.096Z,21.92
2023-12-24T11:37:24.174Z,21.91
2023-12-24T11:38:24.269Z,21.92
2023-12-24T11:39:24.358Z,21.92
2023-12-24T11:40:24.368Z,21.91
2023-12-24T11:41:24.461Z,21.92
2023-12-24T11:42:24.506Z,21.92
2023-12-24T11:43:24.591Z,21.92
2023-12-24T11:44:24.692Z,21.92
2023-12-24T11:45:25.000Z,21.92
2023-12-24T11:46:24.863Z,21.92
2023-12-24T11:47:24.991Z,21.92
2023-12-24T11:48:25.069Z,21.92
2023-12-24T11:49:25.065Z,21.92
2023-12-24T11:50:25.144Z,21.93
2023-12-24T11:51:25.176Z,21.92
2023-12-24T11:52:25.255Z,21.93
2023-12-24T11:53:25.274Z,21.92
2023-12-24T11:54:25.381Z,21.92
2023-12-24T11:55:25.427Z,21.93
2023-12-24T11:56:25.513Z,21.92
2023-12-24T11:57:25.634Z,21.92
2023-12-24T11:58:25.632Z,21.93
2023-12-24T11:59:25.754Z,21.93
2023-12-24T12:00:26.257Z,21.92
2023-12-24T12:01:25.852Z,21.93
2023-12-24T12:02:25.928Z,21.92
2023-12-24T12:03:26.029Z,21.93
2023-12-24T12:04:26.579Z,21.92
2023-12-24T12:05:26.181Z,21.93
2023-12-24T12:06:26.302Z,21.93
2023-12-24T12:07:26.230Z,21.93
2023-12-24T12:08:26.326Z,21.92
2023-12-24T12:09:27.995Z,21.93
2023-12-24T12:10:26.517Z,21.93
2023-12-24T12:11:26.529Z,21.93
2023-12-24T12:12:26.596Z,21.93
2023-12-24T12:13:26.651Z,21.93
2023-12-24T12:15:26.774Z,21.93
2023-12-24T12:16:26.864Z,21.93
2023-12-24T12:17:27.011Z,21.93
2023-12-24T12:18:26.947Z,21.93
2023-12-24T12:19:27.105Z,21.93
2023-12-24T12:20:27.173Z,21.93
2023-12-24T12:21:27.148Z,21.92
2023-12-24T12:22:27.222Z,21.92
2023-12-24T12:23:27.381Z,21.93
2023-12-24T12:24:27.332Z,21.93
2023-12-24T12:25:27.392Z,21.93
2023-12-24T12:26:27.538Z,21.93
2023-12-24T12:27:27.586Z,21.93
2023-12-24T12:28:27.606Z,21.93
2023-12-24T12:29:27.697Z,21.92
2023-12-24T12:30:27.786Z,21.93
2023-12-24T12:31:27.782Z,21.93
2023-12-24T12:32:27.927Z,21.94
2023-12-24T12:33:27.999Z,21.93
2023-12-24T12:34:28.545Z,21.94
2023-12-24T12:35:28.121Z,21.93
2023-12-24T12:36:28.149Z,21.93
2023-12-24T12:37:28.204Z,21.93
2023-12-24T12:38:28.285Z,21.93
2023-12-24T12:39:28.366Z,21.93
2023-12-24T12:40:35.949Z,21.92
2023-12-24T12:41:29.439Z,21.92
2023-12-24T12:42:35.714Z,21.93
2023-12-24T12:43:29.396Z,21.93
2023-12-24T12:44:28.436Z,21.93
2023-12-24T12:45:28.372Z,21.92
2023-12-24T12:46:28.399Z,21.93
2023-12-24T12:47:28.485Z,21.93
2023-12-24T12:48:28.497Z,21.92
2023-12-24T12:49:28.426Z,21.93
2023-12-24T12:50:28.424Z,21.92
2023-12-24T12:51:28.514Z,21.92
2023-12-24T12:52:28.538Z,21.92
2023-12-24T12:53:28.666Z,21.93
2023-12-24T12:54:28.644Z,21.93